Terminal Aerodrome Forecast
Issued by NWS Wilmington, NC

Home | Current Version | Previous Version | Text Only | Print | Product List | Glossary On
Versions: 1 2 3 4 5 6 7 8 9 10 11 12
000
FTUS42 KILM 300500
TAFFLO
TAF
KFLO 300520Z 3006/3106 00000KT P6SM SKC
     FM300800 00000KT 3SM BR SCT004
     FM301000 00000KT 1SM BR BKN004
      TEMPO 3010/3013 1/4SM FG VV001
     FM301300 15008KT P6SM SCT045=

USA.gov is the U.S. government's official web portal to all federal, state and local government web resources and services.